Time;durP1;ratioP1;P1;durP2;ratioP2;P2;SDS_P1;SDS_P2;PMS_P1;PMS_P2;Temp;Humidity;BMP_temperature;BMP_pressure;BME280_temperature;BME280_humidity;BME280_pressure;Samples;Min_cycle;Max_cycle;Signal;HPM_P1;HPM_P2
2021/04/03 03:02:56;;;;;;;14.53;10.43;;;;;;;5.88;100.00;99133.17;1780294;77;20920;-63
2021/04/03 03:05:25;;;;;;;16.37;10.45;;;;;;;5.90;100.00;99132.49;1776207;79;21054;-66
2021/04/03 03:07:56;;;;;;;14.47;9.98;;;;;;;5.93;100.00;99132.17;1769568;78;21088;-68
2021/04/03 03:10:27;;;;;;;15.08;10.93;;;;;;;5.98;100.00;99135.00;1779977;79;40944;-63
2021/04/03 03:12:56;;;;;;;16.27;11.45;;;;;;;6.02;100.00;99131.10;1796735;77;20927;-62
2021/04/03 03:15:31;;;;;;;16.12;10.15;;;;;;;6.05;100.00;99135.89;1792521;79;21246;-63
2021/04/03 03:18:00;;;;;;;19.48;11.73;;;;;;;6.09;100.00;99133.25;1778963;78;21148;-67
2021/04/03 03:20:28;;;;;;;166.25;97.40;;;;;;;6.13;100.00;99134.98;1720019;81;21579;-64
2021/04/03 03:22:57;;;;;;;111.10;67.90;;;;;;;6.17;100.00;99128.95;1768256;80;21898;-65
2021/04/03 03:25:26;;;;;;;56.00;33.42;;;;;;;6.21;100.00;99134.07;1735918;79;21199;-63
2021/04/03 03:27:55;;;;;;;83.05;47.58;;;;;;;6.24;100.00;99136.30;1758953;80;21053;-64
2021/04/03 03:30:25;;;;;;;86.45;48.15;;;;;;;6.28;100.00;99137.54;1774053;79;21010;-64
2021/04/03 03:32:54;;;;;;;38.08;24.32;;;;;;;6.29;100.00;99140.45;1804495;78;21117;-65
2021/04/03 03:35:23;;;;;;;32.58;20.57;;;;;;;6.32;100.00;99137.48;1801002;79;21753;-64
2021/04/03 03:37:53;;;;;;;34.90;27.17;;;;;;;6.35;100.00;99144.89;1795195;77;21144;-67
2021/04/03 03:40:23;;;;;;;64.87;47.00;;;;;;;6.38;100.00;99140.64;1777291;78;21073;-64
2021/04/03 03:42:54;;;;;;;55.28;40.25;;;;;;;6.43;100.00;99135.70;1758462;79;21150;-63
2021/04/03 03:45:24;;;;;;;48.00;30.72;;;;;;;6.47;100.00;99137.44;1786405;78;21038;-63
2021/04/03 03:47:55;;;;;;;38.02;23.47;;;;;;;6.49;100.00;99135.48;1813992;77;21552;-64
2021/04/03 03:50:25;;;;;;;37.67;26.93;;;;;;;6.51;100.00;99130.41;1811916;77;20998;-64
2021/04/03 03:52:54;;;;;;;34.23;23.47;;;;;;;6.55;100.00;99132.14;1808792;78;21627;-63
2021/04/03 03:55:23;;;;;;;27.27;18.00;;;;;;;6.58;100.00;99126.10;1796474;77;21231;-67
2021/04/03 03:57:52;;;;;;;27.35;17.05;;;;;;;6.61;100.00;99133.20;1800911;77;21228;-64
2021/04/03 04:00:21;;;;;;;25.48;18.25;;;;;;;6.64;100.00;99132.84;1744487;79;22211;-64
2021/04/03 04:02:52;;;;;;;27.30;17.45;;;;;;;6.67;100.00;99131.19;1810490;77;25073;-64
2021/04/03 04:05:22;;;;;;;24.47;17.67;;;;;;;6.67;100.00;99135.06;1801996;77;21125;-64
2021/04/03 04:07:52;;;;;;;23.38;16.07;;;;;;;6.68;100.00;99137.95;1804313;77;22119;-64
2021/04/03 04:10:23;;;;;;;26.55;15.45;;;;;;;6.71;100.00;99132.41;1802323;77;21515;-64
2021/04/03 04:12:51;;;;;;;24.63;15.78;;;;;;;6.73;100.00;99133.02;1812187;77;21189;-65
2021/04/03 04:15:20;;;;;;;29.27;18.17;;;;;;;6.76;100.00;99132.65;1804202;77;21022;-65
2021/04/03 04:17:50;;;;;;;25.50;18.80;;;;;;;6.76;100.00;99130.06;1773881;79;21085;-66
2021/04/03 04:20:20;;;;;;;26.33;18.35;;;;;;;6.78;100.00;99126.30;1780525;78;21544;-65
2021/04/03 04:22:50;;;;;;;26.42;17.80;;;;;;;6.80;100.00;99124.81;1787651;78;21647;-64
2021/04/03 04:25:19;;;;;;;22.67;14.87;;;;;;;6.80;100.00;99122.22;1797766;77;21357;-65
2021/04/03 04:27:48;;;;;;;27.15;15.08;;;;;;;6.81;100.00;99125.11;1801308;77;21047;-65
2021/04/03 04:30:18;;;;;;;25.82;17.50;;;;;;;6.78;100.00;99110.77;1785880;78;21533;-65
2021/04/03 04:32:51;;;;;;;29.45;18.12;;;;;;;6.77;100.00;99104.46;1801058;79;21555;-65
2021/04/03 04:35:20;;;;;;;30.40;16.10;;;;;;;6.73;100.00;99112.30;1801692;77;21150;-65
2021/04/03 04:37:51;;;;;;;23.95;14.10;;;;;;;6.71;100.00;99129.83;1814393;78;21345;-64
2021/04/03 04:40:21;;;;;;;29.52;18.02;;;;;;;6.70;100.00;99130.29;1772930;79;21046;-65
2021/04/03 04:42:51;;;;;;;26.87;17.12;;;;;;;6.68;100.00;99134.07;1794473;77;21590;-63
2021/04/03 04:45:21;;;;;;;24.10;16.10;;;;;;;6.66;100.00;99130.85;1784382;79;21247;-63
2021/04/03 04:47:50;;;;;;;27.00;16.73;;;;;;;6.61;100.00;99127.53;1742175;80;21168;-63
2021/04/03 04:50:19;;;;;;;29.10;18.62;;;;;;;6.57;100.00;99134.86;1793561;79;21206;-62
2021/04/03 04:52:48;;;;;;;35.43;20.12;;;;;;;6.54;100.00;99136.52;1736386;80;21073;-63
2021/04/03 04:55:19;;;;;;;32.25;17.85;;;;;;;6.52;100.00;99131.23;1771764;80;21007;-62
2021/04/03 04:57:49;;;;;;;23.67;15.93;;;;;;;6.49;100.00;99127.22;1757317;80;21156;-63
2021/04/03 05:00:20;;;;;;;26.48;17.85;;;;;;;6.47;100.00;99134.35;1761927;80;21058;-63
2021/04/03 05:02:53;;;;;;;28.95;18.20;;;;;;;6.46;100.00;99137.94;1766783;79;21373;-67
2021/04/03 05:05:21;;;;;;;27.95;17.75;;;;;;;6.46;100.00;99135.84;1810612;78;21596;-63
2021/04/03 05:07:50;;;;;;;28.45;16.93;;;;;;;6.45;100.00;99136.34;1798121;78;21168;-64
2021/04/03 05:10:19;;;;;;;25.82;17.87;;;;;;;6.45;100.00;99141.52;1811715;78;20978;-63
2021/04/03 05:12:47;;;;;;;27.07;18.37;;;;;;;6.44;100.00;99146.39;1804567;78;21554;-64
2021/04/03 05:15:16;;;;;;;28.00;18.92;;;;;;;6.43;100.00;99142.67;1805734;77;21245;-63
2021/04/03 05:17:44;;;;;;;27.27;17.87;;;;;;;6.41;100.00;99144.17;1803505;77;21088;-63
2021/04/03 05:20:13;;;;;;;24.60;16.35;;;;;;;6.43;100.00;99145.27;1808949;77;21577;-64
2021/04/03 05:22:41;;;;;;;26.73;16.73;;;;;;;6.42;100.00;99140.59;1808905;78;21116;-64
2021/04/03 05:25:12;;;;;;;21.05;16.25;;;;;;;6.42;100.00;99142.38;1793173;77;21559;-64
2021/04/03 05:27:41;;;;;;;27.25;17.15;;;;;;;6.40;100.00;99147.72;1805194;77;21200;-64
2021/04/03 05:30:11;;;;;;;24.82;17.62;;;;;;;6.39;100.00;99144.03;1816122;78;21141;-63
2021/04/03 05:32:39;;;;;;;24.32;15.95;;;;;;;6.36;100.00;99150.36;1799992;77;21461;-65
2021/04/03 05:35:09;;;;;;;21.85;15.85;;;;;;;6.34;100.00;99151.85;1802250;77;21045;-67
2021/04/03 05:37:38;;;;;;;22.95;16.93;;;;;;;6.35;100.00;99153.94;1812758;78;21117;-69
2021/04/03 05:40:08;;;;;;;22.62;16.20;;;;;;;6.33;100.00;99155.93;1811712;77;21247;-68
2021/04/03 05:42:36;;;;;;;25.68;16.52;;;;;;;6.33;100.00;99158.52;1769374;79;21199;-69
2021/04/03 05:45:06;;;;;;;27.37;16.62;;;;;;;6.34;100.00;99155.73;1802151;78;21138;-69
2021/04/03 05:47:35;;;;;;;23.05;15.80;;;;;;;6.34;100.00;99157.03;1795573;77;21275;-69
2021/04/03 05:50:17;;;;;;;22.67;15.80;;;;;;;6.35;100.00;99157.83;1791332;78;21232;-69
2021/04/03 05:52:48;;;;;;;23.65;17.05;;;;;;;6.34;100.00;99157.53;1774015;79;22275;-69
2021/04/03 05:55:16;;;;;;;24.05;17.30;;;;;;;6.30;100.00;99155.80;1811133;79;21214;-71
2021/04/03 05:57:45;;;;;;;22.22;16.80;;;;;;;6.29;100.00;99161.96;1812925;79;21056;-69
2021/04/03 06:00:15;;;;;;;23.90;16.52;;;;;;;6.30;100.00;99160.97;1781899;80;21500;-69
2021/04/03 06:02:43;;;;;;;19.65;14.60;;;;;;;6.31;100.00;99156.59;1813430;78;21540;-69
2021/04/03 06:05:13;;;;;;;19.65;14.55;;;;;;;6.29;100.00;99152.91;1811974;79;21533;-68
2021/04/03 06:07:41;;;;;;;18.15;14.83;;;;;;;6.26;100.00;99150.67;1812448;78;21196;-69
2021/04/03 06:10:12;;;;;;;19.35;14.83;;;;;;;6.23;100.00;99150.23;1809053;78;21104;-69
2021/04/03 06:12:49;;;;;;;17.98;15.23;;;;;;;6.19;100.00;99151.09;1812224;77;21613;-69
2021/04/03 06:15:28;;;;;;;20.23;13.22;;;;;;;6.19;100.00;99152.38;1812083;77;22441;-69
2021/04/03 06:17:59;;;;;;;20.12;14.90;;;;;;;6.18;100.00;99154.66;1810825;78;21469;-69
2021/04/03 06:20:41;;;;;;;20.88;15.85;;;;;;;6.16;100.00;99164.38;1814211;77;20994;-69
2021/04/03 06:23:10;;;;;;;20.15;14.45;;;;;;;6.17;100.00;99165.18;1808298;77;21574;-70
2021/04/03 06:25:58;;;;;;;18.23;13.48;;;;;;;6.16;100.00;99166.17;1810918;78;21182;-69
2021/04/03 06:28:29;;;;;;;22.70;15.43;;;;;;;6.14;100.00;99162.95;1816038;77;21183;-68
2021/04/03 06:31:13;;;;;;;19.00;14.38;;;;;;;6.14;100.00;99167.66;1805402;78;21176;-68
2021/04/03 06:33:41;;;;;;;19.07;14.30;;;;;;;6.15;100.00;99164.58;1782471;78;21121;-69
2021/04/03 06:36:15;;;;;;;17.62;12.95;;;;;;;6.18;100.00;99168.89;1818366;77;21062;-69
2021/04/03 06:38:46;;;;;;;20.48;14.85;;;;;;;6.21;100.00;99167.71;1814915;77;21128;-69
2021/04/03 06:41:23;;;;;;;19.30;15.45;;;;;;;6.24;100.00;99165.56;1822424;77;20914;-68
2021/04/03 06:44:07;;;;;;;17.57;13.55;;;;;;;6.27;100.00;99161.82;1797968;78;21178;-68
2021/04/03 06:46:42;;;;;;;17.45;13.55;;;;;;;6.28;100.00;99159.53;1793066;78;20973;-68
2021/04/03 06:49:11;;;;;;;18.77;15.13;;;;;;;6.31;100.00;99163.06;1784737;78;20963;-69
2021/04/03 06:51:39;;;;;;;20.82;15.88;;;;;;;6.30;100.00;99157.58;1785790;77;21096;-68
2021/04/03 06:54:10;;;;;;;16.87;13.60;;;;;;;6.31;100.00;99163.06;1787910;79;21586;-69
2021/04/03 06:56:39;;;;;;;17.05;13.53;;;;;;;6.32;100.00;99160.28;1784907;79;21204;-68
2021/04/03 06:59:10;;;;;;;17.57;13.43;;;;;;;6.33;100.00;99158.02;1784103;78;21113;-68
2021/04/03 07:01:53;;;;;;;20.08;15.00;;;;;;;6.36;100.00;99165.89;1781842;79;21179;-68
2021/04/03 07:04:42;;;;;;;18.32;14.60;;;;;;;6.38;100.00;99163.94;1783320;78;21516;-69
2021/04/03 07:07:11;;;;;;;15.93;12.63;;;;;;;6.39;100.00;99168.13;1831056;76;21182;-69
2021/04/03 07:09:40;;;;;;;15.85;13.03;;;;;;;6.42;100.00;99173.44;1797613;79;22723;-69
2021/04/03 07:12:11;;;;;;;17.82;13.65;;;;;;;6.44;100.00;99172.75;1757998;78;21643;-69
2021/04/03 07:14:38;;;;;;;15.23;12.63;;;;;;;6.43;100.00;99170.66;1763405;79;21148;-69
2021/04/03 07:17:06;;;;;;;15.83;13.08;;;;;;;6.43;100.00;99169.36;1803796;79;21179;-69
2021/04/03 07:19:35;;;;;;;21.20;15.80;;;;;;;6.46;100.00;99173.38;1799036;79;20902;-68
2021/04/03 07:22:05;;;;;;;17.00;13.90;;;;;;;6.50;100.00;99180.59;1805190;77;21169;-69
2021/04/03 07:24:33;;;;;;;15.43;12.35;;;;;;;6.53;100.00;99174.26;1809979;79;21483;-69
2021/04/03 07:27:03;;;;;;;15.65;12.68;;;;;;;6.56;100.00;99173.89;1809332;77;22413;-69
2021/04/03 07:29:44;;;;;;;15.70;13.32;;;;;;;6.58;100.00;99175.30;1809572;79;20973;-69
2021/04/03 07:32:39;;;;;;;16.05;13.62;;;;;;;6.61;100.00;99176.73;1807088;76;21148;-69
2021/04/03 07:35:19;;;;;;;14.33;12.35;;;;;;;6.64;100.00;99172.98;1818187;77;21183;-69
2021/04/03 07:37:49;;;;;;;17.25;13.15;;;;;;;6.67;100.00;99174.71;1801789;77;20983;-69
2021/04/03 07:40:30;;;;;;;16.42;12.85;;;;;;;6.68;100.00;99179.39;1813736;77;21464;-69
2021/04/03 07:42:58;;;;;;;16.52;12.93;;;;;;;6.69;100.00;99177.90;1816036;77;21002;-68
2021/04/03 07:45:45;;;;;;;15.68;12.50;;;;;;;6.72;100.00;99182.72;1793583;77;21191;-70
2021/04/03 07:48:36;;;;;;;14.73;11.90;;;;;;;6.76;100.00;99182.66;1788156;79;21236;-70
2021/04/03 07:51:18;;;;;;;17.57;13.18;;;;;;;6.78;100.00;99181.16;1751319;79;21583;-70
2021/04/03 07:53:47;;;;;;;16.82;12.60;;;;;;;6.80;100.00;99185.68;1752237;80;21032;-70
2021/04/03 07:56:23;;;;;;;14.53;11.53;;;;;;;6.83;100.00;99187.91;1751440;79;21579;-68
2021/04/03 07:58:55;;;;;;;16.20;11.48;;;;;;;6.85;100.00;99183.33;1746002;79;21143;-70
2021/04/03 08:01:27;;;;;;;13.28;11.22;;;;;;;6.85;100.00;99179.94;1747596;79;21599;-70
2021/04/03 08:04:02;;;;;;;16.95;12.30;;;;;;;6.86;100.00;99178.48;1752313;79;21218;-67
2021/04/03 08:06:42;;;;;;;14.15;11.65;;;;;;;6.90;100.00;99181.50;1749944;80;21177;-69
2021/04/03 08:09:13;;;;;;;13.15;11.12;;;;;;;6.95;100.00;99182.53;1752086;80;20998;-70
2021/04/03 08:11:45;;;;;;;15.65;10.43;;;;;;;7.00;100.00;99185.36;1759010;79;21195;-67
2021/04/03 08:14:15;;;;;;;12.40;10.25;;;;;;;7.05;100.00;99183.03;1762443;79;21210;-70
2021/04/03 08:16:44;;;;;;;12.05;10.05;;;;;;;7.10;100.00;99186.35;1748822;79;21120;-72
2021/04/03 08:19:14;;;;;;;15.35;10.93;;;;;;;7.15;100.00;99184.48;1752755;79;20989;-69
2021/04/03 08:21:47;;;;;;;11.05;9.63;;;;;;;7.19;100.00;99189.60;1747622;80;21614;-67
2021/04/03 08:24:19;;;;;;;10.78;8.98;;;;;;;7.20;100.00;99189.94;1750530;79;21550;-68
2021/04/03 08:26:48;;;;;;;12.30;9.28;;;;;;;7.22;100.00;99193.13;1757711;79;21359;-69
2021/04/03 08:29:34;;;;;;;12.28;9.20;;;;;;;7.25;100.00;99191.46;1751433;79;21156;-68
2021/04/03 08:32:04;;;;;;;11.38;9.10;;;;;;;7.28;100.00;99191.09;1748558;80;21127;-68
2021/04/03 08:34:33;;;;;;;9.95;7.33;;;;;;;7.31;100.00;99192.81;1751119;80;21155;-70
2021/04/03 08:37:08;;;;;;;10.65;7.83;;;;;;;7.36;100.00;99189.66;1731807;80;21012;-68
2021/04/03 08:39:37;;;;;;;11.60;8.50;;;;;;;7.43;100.00;99189.70;1732532;80;21447;-69
2021/04/03 08:42:06;;;;;;;9.75;8.40;;;;;;;7.47;100.00;99194.83;1726950;80;21143;-69
2021/04/03 08:44:34;;;;;;;10.88;8.78;;;;;;;7.53;100.00;99201.83;1705441;80;21184;-69
2021/04/03 08:47:04;;;;;;;9.38;8.25;;;;;;;7.58;100.00;99196.06;1725210;80;21024;-69
2021/04/03 08:49:37;;;;;;;11.03;9.43;;;;;;;7.64;100.00;99205.70;1745335;79;20978;-68
2021/04/03 08:52:10;;;;;;;10.45;8.83;;;;;;;7.73;100.00;99203.28;1756134;79;21176;-70
2021/04/03 08:54:44;;;;;;;12.73;8.08;;;;;;;7.83;100.00;99205.02;1753608;80;21093;-68
2021/04/03 08:57:26;;;;;;;9.15;7.12;;;;;;;7.93;100.00;99205.48;1754328;79;21206;-69
2021/04/03 09:00:00;;;;;;;9.63;7.30;;;;;;;8.00;100.00;99205.02;1757239;79;21048;-68
2021/04/03 09:02:29;;;;;;;9.58;7.30;;;;;;;8.07;100.00;99206.36;1756394;78;21141;-71
2021/04/03 09:05:04;;;;;;;11.90;9.88;;;;;;;8.12;100.00;99203.98;1751693;79;21272;-69
2021/04/03 09:07:33;;;;;;;11.22;9.03;;;;;;;8.18;100.00;99205.81;1753187;80;21243;-72
2021/04/03 09:10:20;;;;;;;14.18;11.33;;;;;;;8.25;100.00;99209.72;1761591;79;20990;-73
2021/04/03 09:12:49;;;;;;;10.15;7.80;;;;;;;8.28;100.00;99204.94;1781197;79;21225;-72
2021/04/03 09:15:31;;;;;;;10.28;8.53;;;;;;;8.32;100.00;99207.16;1786869;79;21132;-74
2021/04/03 09:18:01;;;;;;;10.10;6.72;;;;;;;8.34;100.00;99209.87;1770090;78;21188;-68
2021/04/03 09:20:32;;;;;;;;;;;;;;;8.37;100.00;99214.71;1757815;78;21274;-70
2021/04/03 09:23:07;;;;;;;10.65;7.53;;;;;;;8.39;100.00;99207.52;1749847;79;20210;-70
2021/04/03 09:25:35;;;;;;;9.93;6.55;;;;;;;8.40;100.00;99210.91;1760119;79;21057;-70
2021/04/03 09:28:10;;;;;;;9.20;7.08;;;;;;;8.42;100.00;99214.13;1756296;79;21125;-71
2021/04/03 09:30:43;;;;;;;9.55;7.35;;;;;;;8.44;100.00;99214.72;1752454;79;21361;-69
2021/04/03 09:33:21;;;;;;;10.32;6.87;;;;;;;8.50;100.00;99218.64;1749220;79;21088;-69
2021/04/03 09:35:51;;;;;;;7.67;5.90;;;;;;;8.62;100.00;99214.98;1749232;79;20985;-70
2021/04/03 09:38:28;;;;;;;9.25;7.50;;;;;;;8.75;100.00;99221.52;1754670;79;21160;-71
2021/04/03 09:40:57;;;;;;;9.35;7.60;;;;;;;8.84;100.00;99221.34;1755259;79;21195;-71
2021/04/03 09:43:43;;;;;;;8.50;6.83;;;;;;;8.86;100.00;99217.52;1757373;79;21435;-69
2021/04/03 09:46:11;;;;;;;7.28;6.40;;;;;;;8.88;100.00;99221.24;1752013;79;21602;-71
2021/04/03 09:48:41;;;;;;;8.50;7.47;;;;;;;8.92;100.00;99220.64;1755462;79;21006;-72
2021/04/03 09:51:11;;;;;;;8.23;6.33;;;;;;;8.95;100.00;99225.45;1750251;79;21063;-72
2021/04/03 09:53:40;;;;;;;7.40;5.67;;;;;;;8.95;100.00;99218.95;1756604;80;21723;-73
2021/04/03 09:56:09;;;;;;;8.37;4.97;;;;;;;8.94;100.00;99221.27;1754393;79;21426;-71
2021/04/03 09:58:38;;;;;;;7.97;5.62;;;;;;;8.92;100.00;99229.74;1752747;80;21729;-72
2021/04/03 10:01:08;;;;;;;7.28;5.12;;;;;;;8.88;100.00;99225.94;1769558;79;21014;-71
2021/04/03 10:03:36;;;;;;;6.23;4.37;;;;;;;8.84;100.00;99229.13;1761801;79;21555;-71
2021/04/03 10:06:06;;;;;;;7.75;5.47;;;;;;;8.81;100.00;99230.31;1750571;79;21504;-72
2021/04/03 10:08:34;;;;;;;7.22;5.20;;;;;;;8.82;100.00;99233.20;1752899;79;21186;-73
2021/04/03 10:11:04;;;;;;;7.05;4.80;;;;;;;8.82;100.00;99229.31;1771441;79;21552;-73
2021/04/03 10:13:33;;;;;;;5.93;4.10;;;;;;;8.82;100.00;99234.50;1773727;79;20948;-73
2021/04/03 10:16:03;;;;;;;6.92;5.20;;;;;;;8.82;100.00;99239.70;1774979;79;21883;-73
2021/04/03 10:18:33;;;;;;;7.28;5.40;;;;;;;8.85;100.00;99241.91;1770187;79;20986;-72
2021/04/03 10:21:03;;;;;;;7.30;5.50;;;;;;;8.86;100.00;99242.21;1766323;79;21364;-72
2021/04/03 10:23:31;;;;;;;8.68;5.37;;;;;;;8.90;100.00;99246.05;1756169;80;21206;-71
2021/04/03 10:26:01;;;;;;;6.27;5.07;;;;;;;8.94;100.00;99249.85;1756076;81;21133;-71
2021/04/03 10:28:29;;;;;;;7.30;5.20;;;;;;;9.07;100.00;99256.86;1755946;80;21426;-69
2021/04/03 10:30:58;;;;;;;8.10;5.30;;;;;;;9.27;100.00;99256.88;1723286;82;21060;-70
2021/04/03 10:33:28;;;;;;;7.40;4.93;;;;;;;9.48;100.00;99254.09;1722039;82;21267;-72
2021/04/03 10:35:56;;;;;;;7.05;4.78;;;;;;;9.70;100.00;99249.49;1714315;82;21456;-69
2021/04/03 10:38:25;;;;;;;6.37;4.93;;;;;;;9.93;100.00;99258.17;1741030;80;21141;-70
2021/04/03 10:40:54;;;;;;;7.03;5.47;;;;;;;10.16;100.00;99263.43;1744336;80;21268;-70
2021/04/03 10:43:24;;;;;;;7.70;5.40;;;;;;;10.38;100.00;99258.28;1737423;81;21898;-68
2021/04/03 10:45:52;;;;;;;7.90;6.07;;;;;;;10.61;100.00;99260.39;1714320;82;22352;-70
2021/04/03 10:48:23;;;;;;;7.20;5.90;;;;;;;10.82;100.00;99260.58;1720507;80;22579;-70
2021/04/03 10:50:52;;;;;;;9.77;7.20;;;;;;;10.97;100.00;99262.91;1731900;79;21447;-69
2021/04/03 10:53:21;;;;;;;7.30;6.20;;;;;;;11.05;100.00;99259.25;1797599;78;21172;-68
2021/04/03 10:55:50;;;;;;;7.80;6.00;;;;;;;11.04;100.00;99263.67;1803604;78;21793;-69
2021/04/03 10:58:19;;;;;;;9.77;7.10;;;;;;;10.98;100.00;99264.50;1801118;78;22103;-69
2021/04/03 11:00:49;;;;;;;8.23;6.87;;;;;;;10.87;100.00;99254.26;1811877;77;21424;-68
2021/04/03 11:03:19;;;;;;;7.50;5.93;;;;;;;10.76;100.00;99261.91;1799371;78;21752;-70
2021/04/03 11:05:47;;;;;;;8.47;6.53;;;;;;;10.66;100.00;99258.47;1794196;77;21390;-70
2021/04/03 11:08:16;;;;;;;8.27;6.70;;;;;;;10.52;100.00;99263.44;1802523;78;21830;-68
2021/04/03 11:10:45;;;;;;;8.53;7.00;;;;;;;10.36;100.00;99262.89;1809448;77;21408;-69
2021/04/03 11:13:15;;;;;;;8.13;6.50;;;;;;;10.24;100.00;99270.52;1809806;77;21319;-69
2021/04/03 11:15:44;;;;;;;8.93;6.77;;;;;;;10.14;100.00;99276.64;1797367;77;21116;-68
2021/04/03 11:18:17;;;;;;;6.90;4.67;;;;;;;10.04;100.00;99289.77;1810847;77;21356;-68
2021/04/03 11:20:45;;;;;;;5.75;4.80;;;;;;;9.90;100.00;99293.71;1803227;78;21784;-68
2021/04/03 11:23:13;;;;;;;5.67;4.07;;;;;;;9.69;100.00;99306.92;1812958;77;21369;-70
2021/04/03 11:25:44;;;;;;;7.07;4.50;;;;;;;9.48;100.00;99295.72;1822675;78;21926;-69
2021/04/03 11:28:12;;;;;;;6.23;3.73;;;;;;;9.32;100.00;99290.91;1819542;78;21817;-69
2021/04/03 11:30:41;;;;;;;6.03;4.23;;;;;;;9.18;100.00;99295.28;1818202;78;21795;-69
2021/04/03 11:33:12;;;;;;;6.83;4.83;;;;;;;9.04;100.00;99300.64;1797285;78;21345;-69
2021/04/03 11:35:41;;;;;;;7.17;4.40;;;;;;;8.90;100.00;99308.42;1798288;77;21368;-70
2021/04/03 11:38:09;;;;;;;6.00;4.12;;;;;;;8.76;100.00;99311.96;1796404;78;21460;-69
2021/04/03 11:40:38;;;;;;;6.60;4.40;;;;;;;8.61;100.00;99310.80;1807059;78;21059;-69
2021/04/03 11:43:06;;;;;;;7.70;4.80;;;;;;;8.43;100.00;99324.79;1820317;78;21801;-69
2021/04/03 11:45:35;;;;;;;6.80;4.50;;;;;;;8.23;100.00;99329.34;1819559;77;21649;-71
2021/04/03 11:48:05;;;;;;;6.87;4.50;;;;;;;8.09;100.00;99334.13;1822198;77;21515;-66
2021/04/03 11:50:35;;;;;;;6.37;4.12;;;;;;;8.01;100.00;99340.27;1787813;78;21167;-67
2021/04/03 11:53:04;;;;;;;6.80;4.67;;;;;;;7.96;100.00;99345.23;1786058;78;21619;-68
2021/04/03 11:55:33;;;;;;;7.25;5.22;;;;;;;7.92;100.00;99356.98;1790766;78;21065;-68
2021/04/03 11:58:03;;;;;;;9.68;5.70;;;;;;;7.90;100.00;99355.55;1797998;78;21199;-66
2021/04/03 12:00:32;;;;;;;8.60;6.15;;;;;;;7.87;100.00;99359.31;1787576;78;21196;-68
2021/04/03 12:03:01;;;;;;;8.57;5.27;;;;;;;7.91;100.00;99360.55;1780446;78;21174;-69
2021/04/03 12:05:30;;;;;;;7.70;5.47;;;;;;;7.99;100.00;99356.55;1776071;77;22346;-69
2021/04/03 12:07:58;;;;;;;8.07;5.17;;;;;;;8.10;100.00;99354.41;1769836;77;21526;-70
2021/04/03 12:10:27;;;;;;;7.13;5.27;;;;;;;8.23;100.00;99366.19;1755251;79;21591;-69
2021/04/03 12:12:55;;;;;;;8.60;5.97;;;;;;;8.31;100.00;99362.14;1775207;77;22131;-70
2021/04/03 12:15:25;;;;;;;8.30;5.42;;;;;;;8.39;100.00;99362.52;1769675;77;21061;-68
2021/04/03 12:17:55;;;;;;;8.65;5.15;;;;;;;8.43;100.00;99359.34;1778031;78;20985;-69
2021/04/03 12:20:24;;;;;;;8.57;5.97;;;;;;;8.52;100.00;99367.31;1782229;77;21558;-69
2021/04/03 12:22:53;;;;;;;7.67;5.50;;;;;;;8.63;100.00;99363.84;1778702;79;21782;-69
2021/04/03 12:25:22;;;;;;;8.53;5.67;;;;;;;8.77;100.00;99365.52;1780658;77;21376;-68
2021/04/03 12:27:50;;;;;;;10.03;6.72;;;;;;;8.90;100.00;99364.77;1779403;77;21296;-68
2021/04/03 12:30:21;;;;;;;8.53;6.37;;;;;;;9.01;100.00;99375.41;1780406;77;22445;-70
2021/04/03 12:32:49;;;;;;;7.93;6.17;;;;;;;9.17;100.00;99379.99;1780033;78;21191;-69
2021/04/03 12:35:18;;;;;;;9.37;6.70;;;;;;;9.26;100.00;99374.91;1780414;77;21875;-70
2021/04/03 12:37:47;;;;;;;10.97;7.60;;;;;;;9.34;100.00;99385.13;1796884;78;21196;-69
2021/04/03 12:40:16;;;;;;;8.47;6.20;;;;;;;9.32;100.00;99392.81;1787947;78;21767;-67
2021/04/03 12:42:44;;;;;;;7.83;6.43;;;;;;;9.20;100.00;99390.78;1787775;78;21756;-68
2021/04/03 12:45:14;;;;;;;9.70;7.63;;;;;;;8.99;100.00;99394.81;1791176;78;21293;-67
2021/04/03 12:47:42;;;;;;;9.07;7.13;;;;;;;8.71;100.00;99409.98;1793235;78;21382;-67
2021/04/03 12:50:13;;;;;;;10.40;7.80;;;;;;;8.50;100.00;99413.44;1823623;77;21421;-69
2021/04/03 12:52:41;;;;;;;10.80;8.67;;;;;;;8.35;100.00;99415.30;1817413;78;21175;-68
2021/04/03 12:55:11;;;;;;;11.80;9.27;;;;;;;8.21;100.00;99416.19;1818357;78;21396;-69
2021/04/03 12:57:41;;;;;;;9.83;8.40;;;;;;;8.04;100.00;99423.45;1812372;77;21200;-69
2021/04/03 13:00:11;;;;;;;12.60;10.20;;;;;;;7.89;100.00;99424.81;1829611;77;21174;-69
2021/04/03 13:02:40;;;;;;;11.97;9.93;;;;;;;7.78;100.00;99427.41;1823314;77;21447;-68
2021/04/03 13:05:10;;;;;;;12.30;10.83;;;;;;;7.69;100.00;99437.61;1831255;77;21362;-68
2021/04/03 13:07:38;;;;;;;13.83;10.58;;;;;;;7.56;100.00;99442.64;1769298;79;21435;-68
2021/04/03 13:10:10;;;;;;;13.10;11.55;;;;;;;7.50;100.00;99448.55;1781501;78;21203;-69
2021/04/03 13:12:40;;;;;;;12.45;10.82;;;;;;;7.38;100.00;99457.78;1774424;79;21003;-70
2021/04/03 13:15:11;;;;;;;12.15;10.90;;;;;;;7.24;100.00;99462.03;1776035;79;21286;-69
2021/04/03 13:17:39;;;;;;;13.98;11.97;;;;;;;7.12;100.00;99465.54;1772978;79;21036;-69
2021/04/03 13:20:10;;;;;;;14.13;12.73;;;;;;;6.97;100.00;99482.41;1775172;80;22270;-69
2021/04/03 13:22:38;;;;;;;13.75;11.95;;;;;;;6.86;100.00;99485.91;1817550;77;21198;-68
2021/04/03 13:25:08;;;;;;;16.57;12.43;;;;;;;6.75;100.00;99491.86;1796324;77;21473;-68
2021/04/03 13:27:36;;;;;;;13.75;11.80;;;;;;;6.63;100.00;99502.81;1803317;77;21170;-69
2021/04/03 13:30:07;;;;;;;14.03;12.53;;;;;;;6.50;100.00;99511.18;1789769;78;21210;-68
2021/04/03 13:32:35;;;;;;;13.10;11.70;;;;;;;6.36;100.00;99519.20;1789283;78;21099;-68
2021/04/03 13:35:07;;;;;;;44.50;22.93;;;;;;;6.25;100.00;99523.50;1822336;77;21063;-72
2021/04/03 13:37:35;;;;;;;16.62;13.55;;;;;;;6.16;100.00;99524.05;1812386;77;21028;-67
2021/04/03 13:40:06;;;;;;;13.93;12.53;;;;;;;6.06;100.00;99524.30;1775755;79;21187;-70
2021/04/03 13:42:35;;;;;;;13.20;11.80;;;;;;;5.99;100.00;99535.00;1775034;79;21609;-71
2021/04/03 13:45:06;;;;;;;11.88;10.68;;;;;;;5.92;100.00;99540.54;1743886;80;20993;-73
2021/04/03 13:47:34;;;;;;;12.85;11.57;;;;;;;5.85;100.00;99544.75;1816421;78;21085;-70
2021/04/03 13:50:05;;;;;;;14.30;12.85;;;;;;;5.76;100.00;99548.36;1819403;78;21551;-71
2021/04/03 13:52:33;;;;;;;12.60;10.80;;;;;;;5.65;100.00;99565.05;1815017;78;22498;-69
2021/04/03 13:55:04;;;;;;;11.28;9.60;;;;;;;5.56;100.00;99573.80;1815088;77;21159;-70
2021/04/03 13:57:32;;;;;;;13.10;10.63;;;;;;;5.49;100.00;99578.02;1774103;78;21579;-68
2021/04/03 14:00:01;;;;;;;12.18;10.80;;;;;;;5.43;100.00;99577.41;1804327;77;21167;-68
2021/04/03 14:02:31;;;;;;;13.50;10.72;;;;;;;5.38;100.00;99583.08;1809721;77;21965;-67
2021/04/03 14:05:00;;;;;;;20.80;12.15;;;;;;;5.34;100.00;99593.40;1803845;78;22257;-67
2021/04/03 14:07:28;;;;;;;12.47;10.20;;;;;;;5.32;100.00;99596.65;1803440;78;21560;-69
2021/04/03 14:09:58;;;;;;;14.13;10.40;;;;;;;5.29;100.00;99589.22;1801078;77;21017;-70
2021/04/03 14:12:26;;;;;;;12.45;9.55;;;;;;;5.24;100.00;99592.31;1808020;77;21420;-70
2021/04/03 14:14:56;;;;;;;9.75;8.30;;;;;;;5.20;100.00;99601.85;1800427;78;21216;-74
2021/04/03 14:17:24;;;;;;;18.17;10.03;;;;;;;5.20;100.00;99597.97;1814339;77;21201;-70
2021/04/03 14:19:52;;;;;;;10.90;8.20;;;;;;;5.17;100.00;99603.47;1810726;77;21132;-70
2021/04/03 14:22:21;;;;;;;10.98;6.60;;;;;;;5.13;100.00;99609.44;1814666;77;20983;-72
2021/04/03 14:24:50;;;;;;;8.75;6.37;;;;;;;5.11;100.00;99614.78;1790141;77;21572;-69
2021/04/03 14:27:18;;;;;;;8.20;6.92;;;;;;;5.10;100.00;99617.02;1810442;79;21561;-69
2021/04/03 14:29:47;;;;;;;8.43;6.45;;;;;;;5.09;100.00;99608.16;1808091;77;21218;-69
2021/04/03 14:32:17;;;;;;;8.70;5.62;;;;;;;5.07;100.00;99608.30;1806412;77;21045;-69
2021/04/03 14:34:46;;;;;;;9.00;5.67;;;;;;;5.05;100.00;99607.67;1809172;77;21070;-69
2021/04/03 14:37:15;;;;;;;8.43;6.15;;;;;;;5.06;100.00;99617.52;1809636;77;21184;-70
2021/04/03 14:39:43;;;;;;;7.75;6.33;;;;;;;5.03;100.00;99622.52;1813531;77;21220;-68
2021/04/03 14:42:12;;;;;;;12.78;7.95;;;;;;;5.02;100.00;99618.81;1809923;77;21258;-71